createdAt,value
2023-05-12T00:00:14.346Z,12.96
2023-05-12T00:01:17.257Z,13.02
2023-05-12T00:02:20.188Z,13.02
2023-05-12T00:03:23.146Z,13.02
2023-05-12T00:04:26.013Z,13.00
2023-05-12T00:05:30.679Z,13.00
2023-05-12T00:06:33.599Z,12.99
2023-05-12T00:07:36.687Z,12.98
2023-05-12T00:08:39.934Z,12.96
2023-05-12T00:09:43.142Z,12.98
2023-05-12T00:10:46.024Z,13.00
2023-05-12T00:11:49.706Z,12.99
2023-05-12T00:12:52.731Z,12.96
2023-05-12T00:13:56.623Z,12.98
2023-05-12T00:14:59.533Z,12.99
2023-05-12T00:16:03.890Z,12.99
2023-05-12T00:17:07.897Z,13.02
2023-05-12T00:18:11.053Z,13.00
2023-05-12T00:19:13.876Z,13.02
2023-05-12T00:20:16.890Z,13.00
2023-05-12T00:21:19.863Z,13.00
2023-05-12T00:22:22.809Z,13.00
2023-05-12T00:23:25.602Z,12.98
2023-05-12T00:24:28.430Z,12.98
2023-05-12T00:25:31.224Z,12.99
2023-05-12T00:26:34.110Z,12.99
2023-05-12T00:27:36.983Z,12.99
2023-05-12T00:28:39.841Z,12.99
2023-05-12T00:29:42.818Z,12.99
2023-05-12T00:30:45.891Z,12.98
2023-05-12T00:31:48.744Z,12.99
2023-05-12T00:32:51.745Z,12.98
2023-05-12T00:33:54.616Z,12.96
2023-05-12T00:34:58.672Z,12.96
2023-05-12T00:36:05.363Z,12.98
2023-05-12T00:37:08.460Z,12.99
2023-05-12T00:38:11.709Z,12.99
2023-05-12T00:39:14.910Z,13.00
2023-05-12T00:40:18.052Z,13.00
2023-05-12T00:41:21.563Z,12.99
2023-05-12T00:42:24.384Z,13.03
2023-05-12T00:43:27.273Z,12.99
2023-05-12T00:44:30.235Z,13.00
2023-05-12T00:45:33.237Z,12.98
2023-05-12T00:46:36.051Z,12.95
2023-05-12T00:47:38.972Z,12.99
2023-05-12T00:48:41.859Z,13.00
2023-05-12T00:49:44.900Z,13.05
2023-05-12T00:50:47.939Z,13.06
2023-05-12T00:51:50.854Z,13.08
2023-05-12T00:52:53.930Z,13.02
2023-05-12T00:53:58.669Z,13.02
2023-05-12T00:55:02.677Z,13.02
2023-05-12T00:56:06.562Z,13.00
2023-05-12T00:57:09.683Z,13.00
2023-05-12T00:58:12.539Z,12.99
2023-05-12T00:59:15.404Z,12.99
2023-05-12T01:00:19.284Z,12.99
2023-05-12T01:01:22.398Z,12.93
2023-05-12T01:02:25.547Z,12.89
2023-05-12T01:03:28.856Z,12.92
2023-05-12T01:04:31.986Z,12.89
2023-05-12T01:05:43.979Z,12.88
2023-05-12T01:07:00.146Z,12.84
2023-05-12T01:08:04.788Z,12.88
2023-05-12T01:09:07.747Z,12.87
2023-05-12T01:10:21.929Z,12.87
2023-05-12T01:11:25.679Z,12.87
2023-05-12T01:12:29.264Z,12.88
2023-05-12T01:13:32.822Z,12.92
2023-05-12T01:14:35.889Z,12.93
2023-05-12T01:15:43.468Z,12.93
2023-05-12T01:16:58.959Z,12.95
2023-05-12T01:18:04.340Z,12.98
2023-05-12T01:19:08.991Z,12.96
2023-05-12T01:20:16.219Z,12.98
2023-05-12T01:21:19.483Z,12.99
2023-05-12T01:22:22.570Z,12.98
2023-05-12T01:23:33.320Z,12.96
2023-05-12T01:24:44.134Z,12.99
2023-05-12T01:25:50.429Z,13.02
2023-05-12T01:26:53.264Z,13.02
2023-05-12T01:27:56.589Z,13.06
2023-05-12T01:28:59.983Z,13.05
2023-05-12T01:30:05.548Z,13.06
2023-05-12T01:31:10.171Z,13.08
2023-05-12T01:32:13.969Z,13.10
2023-05-12T01:33:17.059Z,13.12
2023-05-12T01:34:19.927Z,13.09
2023-05-12T01:35:22.857Z,13.10
2023-05-12T01:36:25.736Z,13.10
2023-05-12T01:37:28.678Z,13.08
2023-05-12T01:38:31.738Z,13.09
2023-05-12T01:39:34.586Z,13.06
2023-05-12T01:40:37.726Z,13.03
2023-05-12T01:41:40.548Z,13.02
2023-05-12T01:42:44.217Z,12.98
2023-05-12T01:43:47.428Z,13.05
2023-05-12T01:44:50.332Z,13.00
2023-05-12T01:45:53.122Z,13.02
2023-05-12T01:46:56.174Z,13.00
2023-05-12T01:47:59.097Z,12.93
2023-05-12T01:49:01.949Z,12.96
2023-05-12T01:50:04.996Z,12.96
2023-05-12T01:51:10.811Z,12.96
2023-05-12T01:52:13.588Z,12.99
2023-05-12T01:53:16.400Z,13.00
2023-05-12T01:54:19.224Z,13.00
2023-05-12T01:55:22.157Z,12.96
2023-05-12T01:56:25.050Z,12.92
2023-05-12T01:57:27.855Z,12.93
2023-05-12T01:58:30.647Z,12.93
2023-05-12T01:59:33.496Z,12.96
2023-05-12T02:00:36.340Z,12.96
2023-05-12T02:01:39.153Z,12.96
2023-05-12T02:02:43.337Z,12.89
2023-05-12T02:03:46.486Z,12.89
2023-05-12T02:04:49.572Z,12.91
2023-05-12T02:05:52.698Z,12.87
2023-05-12T02:06:55.498Z,12.85
2023-05-12T02:07:58.338Z,12.82
2023-05-12T02:09:01.167Z,12.79
2023-05-12T02:10:04.041Z,12.79
2023-05-12T02:11:10.244Z,12.79
2023-05-12T02:12:13.136Z,12.78
2023-05-12T02:13:16.615Z,12.77
2023-05-12T02:14:19.440Z,12.78
2023-05-12T02:15:22.266Z,12.75
2023-05-12T02:16:25.269Z,12.74
2023-05-12T02:17:29.971Z,12.75
2023-05-12T02:18:32.816Z,12.72
2023-05-12T02:19:35.686Z,12.74
2023-05-12T02:20:38.466Z,12.71
2023-05-12T02:21:41.317Z,12.74
2023-05-12T02:22:44.095Z,12.72
2023-05-12T02:23:46.959Z,12.75
2023-05-12T02:24:49.753Z,12.67
2023-05-12T02:25:52.569Z,12.68
2023-05-12T02:26:55.376Z,12.72
2023-05-12T02:27:58.164Z,12.71
2023-05-12T02:29:01.013Z,12.72
2023-05-12T02:30:03.824Z,12.75
2023-05-12T02:31:06.766Z,12.75
2023-05-12T02:32:10.046Z,12.72
2023-05-12T02:33:13.250Z,12.74
2023-05-12T02:34:16.450Z,12.75
2023-05-12T02:35:19.267Z,12.75
2023-05-12T02:36:22.081Z,12.78
2023-05-12T02:37:25.060Z,12.72
2023-05-12T02:38:28.729Z,12.71
2023-05-12T02:39:31.575Z,12.69
2023-05-12T02:40:34.362Z,12.68
2023-05-12T02:41:37.226Z,12.67
2023-05-12T02:42:40.508Z,12.69
2023-05-12T02:43:43.304Z,12.68
2023-05-12T02:44:46.238Z,12.69
2023-05-12T02:45:49.106Z,12.68
2023-05-12T02:46:52.009Z,12.65
2023-05-12T02:47:54.894Z,12.67
2023-05-12T02:48:57.874Z,12.62
2023-05-12T02:50:00.692Z,12.61
2023-05-12T02:51:03.472Z,12.59
2023-05-12T02:52:06.652Z,12.50
2023-05-12T02:53:09.465Z,12.51
2023-05-12T02:54:12.374Z,12.51
2023-05-12T02:55:15.322Z,12.57
2023-05-12T02:56:19.204Z,12.58
2023-05-12T02:57:22.308Z,12.58
2023-05-12T02:58:25.439Z,12.59
2023-05-12T02:59:28.767Z,12.62
2023-05-12T03:00:31.567Z,12.62
2023-05-12T03:01:34.411Z,12.61
2023-05-12T03:02:39.736Z,12.59
2023-05-12T03:03:43.028Z,12.61
2023-05-12T03:04:46.226Z,12.61
2023-05-12T03:05:49.966Z,12.61
2023-05-12T03:06:52.830Z,12.65
2023-05-12T03:07:55.689Z,12.62
2023-05-12T03:08:58.519Z,12.61
2023-05-12T03:10:02.901Z,12.58
2023-05-12T03:11:05.857Z,12.61
2023-05-12T03:12:09.212Z,12.61
2023-05-12T03:13:12.092Z,12.59
2023-05-12T03:14:14.949Z,12.61
2023-05-12T03:15:18.188Z,12.59
2023-05-12T03:16:21.494Z,12.59
2023-05-12T03:17:24.663Z,12.57
2023-05-12T03:18:27.584Z,12.57
2023-05-12T03:19:30.440Z,12.57
2023-05-12T03:20:33.337Z,12.55
2023-05-12T03:21:36.239Z,12.52
2023-05-12T03:22:39.308Z,12.52
2023-05-12T03:23:42.131Z,12.54
2023-05-12T03:24:45.128Z,12.54
2023-05-12T03:25:47.959Z,12.57
2023-05-12T03:26:50.792Z,12.57
2023-05-12T03:27:53.775Z,12.59
2023-05-12T03:28:56.862Z,12.61
2023-05-12T03:30:02.075Z,12.64
2023-05-12T03:31:04.941Z,12.64
2023-05-12T03:32:08.005Z,12.64
2023-05-12T03:33:10.804Z,12.61
2023-05-12T03:34:13.737Z,12.64
2023-05-12T03:35:16.624Z,12.61
2023-05-12T03:36:19.568Z,12.59
2023-05-12T03:37:22.586Z,12.58
2023-05-12T03:38:25.467Z,12.55
2023-05-12T03:39:28.325Z,12.54
2023-05-12T03:40:31.142Z,12.52
2023-05-12T03:41:34.017Z,12.51
2023-05-12T03:42:36.787Z,12.48
2023-05-12T03:43:39.650Z,12.44
2023-05-12T03:44:42.491Z,12.45
2023-05-12T03:45:45.304Z,12.48
2023-05-12T03:46:48.229Z,12.45
2023-05-12T03:47:51.235Z,12.44
2023-05-12T03:48:54.531Z,12.45
2023-05-12T03:49:57.320Z,12.44
2023-05-12T03:51:00.136Z,12.41
2023-05-12T03:52:03.048Z,12.45
2023-05-12T03:53:05.924Z,12.44
2023-05-12T03:54:08.724Z,12.45
2023-05-12T03:55:12.057Z,12.47
2023-05-12T03:56:16.783Z,12.41
2023-05-12T03:57:19.764Z,12.44
2023-05-12T03:58:27.042Z,12.45
2023-05-12T03:59:32.915Z,12.44
2023-05-12T04:00:35.817Z,12.42
2023-05-12T04:01:38.805Z,12.41
2023-05-12T04:02:42.669Z,12.41
2023-05-12T04:03:45.673Z,12.41
2023-05-12T04:04:48.519Z,12.40
2023-05-12T04:05:51.403Z,12.44
2023-05-12T04:06:54.789Z,12.44
2023-05-12T04:07:57.811Z,12.42
2023-05-12T04:09:00.736Z,12.41
2023-05-12T04:10:04.084Z,12.47
2023-05-12T04:11:07.092Z,12.48
2023-05-12T04:12:09.949Z,12.50
2023-05-12T04:13:12.787Z,12.50
2023-05-12T04:14:16.276Z,12.48
2023-05-12T04:15:19.225Z,12.54
2023-05-12T04:16:22.613Z,12.55
2023-05-12T04:17:25.598Z,12.55
2023-05-12T04:18:29.591Z,12.55
2023-05-12T04:19:32.410Z,12.57
2023-05-12T04:20:35.233Z,12.59
2023-05-12T04:21:38.053Z,12.58
2023-05-12T04:22:41.033Z,12.57
2023-05-12T04:23:43.894Z,12.58
2023-05-12T04:24:46.712Z,12.59
2023-05-12T04:25:49.813Z,12.58
2023-05-12T04:26:52.618Z,12.57
2023-05-12T04:27:55.495Z,12.62
2023-05-12T04:28:58.346Z,12.55
2023-05-12T04:30:01.099Z,12.54
2023-05-12T04:31:07.757Z,12.45
2023-05-12T04:32:10.745Z,12.50
2023-05-12T04:33:13.788Z,12.48
2023-05-12T04:34:16.592Z,12.50
2023-05-12T04:35:19.382Z,12.50
2023-05-12T04:36:22.352Z,12.51
2023-05-12T04:37:25.289Z,12.51
2023-05-12T04:38:28.615Z,12.50
2023-05-12T04:39:31.477Z,12.50
2023-05-12T04:40:35.162Z,12.52
2023-05-12T04:41:38.222Z,12.55
2023-05-12T04:42:41.168Z,12.52
2023-05-12T04:44:49.709Z,12.55
2023-05-12T04:45:53.000Z,12.52
2023-05-12T04:46:57.559Z,12.54
2023-05-12T04:48:00.375Z,12.52
2023-05-12T04:49:03.297Z,12.50
2023-05-12T04:50:07.050Z,12.47
2023-05-12T04:51:10.263Z,12.50
2023-05-12T04:52:13.070Z,12.52
2023-05-12T04:53:19.073Z,12.52
2023-05-12T04:54:21.926Z,12.45
2023-05-12T04:55:24.969Z,12.44
2023-05-12T04:56:27.851Z,12.45
2023-05-12T04:57:30.649Z,12.45
2023-05-12T04:58:33.873Z,12.47
2023-05-12T04:59:39.921Z,12.52
2023-05-12T05:00:44.508Z,12.55
2023-05-12T05:01:47.537Z,12.57
2023-05-12T05:02:50.538Z,12.58
2023-05-12T05:03:53.644Z,12.59
2023-05-12T05:04:56.806Z,12.61
2023-05-12T05:05:59.713Z,12.65
2023-05-12T05:07:02.612Z,12.62
2023-05-12T05:08:05.512Z,12.64
2023-05-12T05:09:08.471Z,12.62
2023-05-12T05:10:12.120Z,12.61
2023-05-12T05:11:14.989Z,12.64
2023-05-12T05:12:17.917Z,12.64
2023-05-12T05:13:20.728Z,12.64
2023-05-12T05:14:24.143Z,12.64
2023-05-12T05:15:27.029Z,12.62
2023-05-12T05:16:30.065Z,12.64
2023-05-12T05:17:33.029Z,12.62
2023-05-12T05:18:35.851Z,12.58
2023-05-12T05:19:53.652Z,12.58
2023-05-12T05:20:59.209Z,12.58
2023-05-12T05:22:02.427Z,12.58
2023-05-12T05:23:05.236Z,12.57
2023-05-12T05:24:09.149Z,12.54
2023-05-12T05:25:12.506Z,12.51
2023-05-12T05:26:15.394Z,12.51
2023-05-12T05:27:18.239Z,12.55
2023-05-12T05:28:21.128Z,12.55
2023-05-12T05:29:24.013Z,12.59
2023-05-12T05:30:26.843Z,12.61
2023-05-12T05:31:30.037Z,12.61
2023-05-12T05:32:32.986Z,12.59
2023-05-12T05:33:35.936Z,12.61
2023-05-12T05:34:38.949Z,12.59
2023-05-12T05:35:43.127Z,12.62
2023-05-12T05:36:46.185Z,12.64
2023-05-12T05:37:49.069Z,12.64
2023-05-12T05:38:51.870Z,12.61
2023-05-12T05:39:54.675Z,12.61
2023-05-12T05:40:57.767Z,12.65
2023-05-12T05:42:00.582Z,12.69
2023-05-12T05:43:03.423Z,12.71
2023-05-12T05:44:06.320Z,12.72
2023-05-12T05:45:09.864Z,12.75
2023-05-12T05:46:12.692Z,12.75
2023-05-12T05:47:15.516Z,12.72
2023-05-12T05:48:18.837Z,12.77
2023-05-12T05:49:21.777Z,12.75
2023-05-12T05:50:24.663Z,12.77
2023-05-12T05:51:27.510Z,12.75
2023-05-12T05:52:31.561Z,12.77
2023-05-12T05:53:34.409Z,12.77
2023-05-12T05:54:37.301Z,12.77
2023-05-12T05:55:40.276Z,12.81
2023-05-12T05:56:43.149Z,12.84
2023-05-12T05:57:46.011Z,12.84
2023-05-12T05:58:49.084Z,12.84
2023-05-12T05:59:52.012Z,12.79
2023-05-12T06:00:55.367Z,12.79
2023-05-12T06:01:58.260Z,12.82
2023-05-12T06:03:01.232Z,12.88
2023-05-12T06:04:04.232Z,12.91
2023-05-12T06:05:08.305Z,12.89
2023-05-12T06:06:11.152Z,12.84
2023-05-12T06:07:14.505Z,12.81
2023-05-12T06:08:17.419Z,12.81
2023-05-12T06:09:20.368Z,12.82
2023-05-12T06:10:23.410Z,12.84
2023-05-12T06:11:26.307Z,12.84
2023-05-12T06:12:29.314Z,12.85
2023-05-12T06:13:32.719Z,12.84
2023-05-12T06:14:35.534Z,12.82
2023-05-12T06:15:38.454Z,12.89
2023-05-12T06:16:41.333Z,12.88
2023-05-12T06:17:44.249Z,12.89
2023-05-12T06:18:47.103Z,12.95
2023-05-12T06:19:51.217Z,12.96
2023-05-12T06:20:54.494Z,12.99
2023-05-12T06:21:57.305Z,12.98
2023-05-12T06:23:00.135Z,12.93
2023-05-12T06:24:03.013Z,12.98
2023-05-12T06:25:06.219Z,12.98
2023-05-12T06:26:09.145Z,12.96
2023-05-12T06:27:12.139Z,12.96
2023-05-12T06:28:14.952Z,12.98
2023-05-12T06:29:17.777Z,12.99
2023-05-12T06:30:20.757Z,12.99
2023-05-12T06:31:23.590Z,13.06
2023-05-12T06:32:26.592Z,13.05
2023-05-12T06:33:29.493Z,13.10
2023-05-12T06:34:33.363Z,13.06
2023-05-12T06:35:36.335Z,13.08
2023-05-12T06:36:39.977Z,13.09
2023-05-12T06:37:42.884Z,13.08
2023-05-12T06:38:45.702Z,13.09
2023-05-12T06:39:48.518Z,13.03
2023-05-12T06:40:51.526Z,13.05
2023-05-12T06:41:54.446Z,13.05
2023-05-12T06:42:57.252Z,13.02
2023-05-12T06:44:02.819Z,13.00
2023-05-12T06:45:06.507Z,13.00
2023-05-12T06:46:10.038Z,12.96
2023-05-12T06:47:12.908Z,12.98
2023-05-12T06:48:15.750Z,12.93
2023-05-12T06:49:18.588Z,12.95
2023-05-12T06:50:21.387Z,12.98
2023-05-12T06:51:24.497Z,12.98
2023-05-12T06:52:27.584Z,13.00
2023-05-12T06:53:31.298Z,13.03
2023-05-12T06:54:34.296Z,13.00
2023-05-12T06:55:37.125Z,13.02
2023-05-12T06:56:39.977Z,13.03
2023-05-12T06:57:42.916Z,13.08
2023-05-12T06:58:45.779Z,13.09
2023-05-12T06:59:48.907Z,13.10
2023-05-12T07:00:51.732Z,13.13
2023-05-12T07:01:54.817Z,13.16
2023-05-12T07:02:58.097Z,13.10
2023-05-12T07:04:01.473Z,13.16
2023-05-12T07:05:04.404Z,13.22
2023-05-12T07:06:07.328Z,13.23
2023-05-12T07:07:10.757Z,13.23
2023-05-12T07:08:13.726Z,13.26
2023-05-12T07:09:16.629Z,13.29
2023-05-12T07:10:19.705Z,13.27
2023-05-12T07:11:22.765Z,13.27
2023-05-12T07:12:25.590Z,13.29
2023-05-12T07:13:29.177Z,13.32
2023-05-12T07:14:32.000Z,13.33
2023-05-12T07:15:34.827Z,13.33
2023-05-12T07:16:37.874Z,13.37
2023-05-12T07:17:40.802Z,13.37
2023-05-12T07:18:44.055Z,13.32
2023-05-12T07:19:46.905Z,13.33
2023-05-12T07:20:50.387Z,13.36
2023-05-12T07:21:53.476Z,13.30
2023-05-12T07:22:57.940Z,13.32
2023-05-12T07:24:00.715Z,13.30
2023-05-12T07:25:03.581Z,13.26
2023-05-12T07:26:08.385Z,13.26
2023-05-12T07:27:11.232Z,13.26
2023-05-12T07:28:14.107Z,13.23
2023-05-12T07:29:16.925Z,13.23
2023-05-12T07:30:19.781Z,13.27
2023-05-12T07:31:22.612Z,13.26
2023-05-12T07:32:26.775Z,13.27
2023-05-12T07:33:30.324Z,13.32
2023-05-12T07:34:36.127Z,13.35
2023-05-12T07:35:39.057Z,13.39
2023-05-12T07:36:41.892Z,13.40
2023-05-12T07:37:44.764Z,13.40
2023-05-12T07:38:47.759Z,13.42
2023-05-12T07:39:50.968Z,13.40
2023-05-12T07:40:54.010Z,13.39
2023-05-12T07:41:56.813Z,13.40
2023-05-12T07:42:59.717Z,13.39
2023-05-12T07:44:03.585Z,13.43
2023-05-12T07:45:07.333Z,13.44
2023-05-12T07:46:10.297Z,13.44
2023-05-12T07:47:13.115Z,13.46
2023-05-12T07:48:16.600Z,13.48
2023-05-12T07:49:19.450Z,13.53
2023-05-12T07:50:22.781Z,13.57
2023-05-12T07:51:25.586Z,13.57
2023-05-12T07:52:28.415Z,13.60
2023-05-12T07:53:31.222Z,13.61
2023-05-12T07:54:34.141Z,13.71
2023-05-12T07:55:37.042Z,13.74
2023-05-12T07:56:40.051Z,13.74
2023-05-12T07:57:43.175Z,13.73
2023-05-12T07:58:47.535Z,13.75
2023-05-12T07:59:50.775Z,13.78
2023-05-12T08:00:55.688Z,13.79
2023-05-12T08:01:58.896Z,13.81
2023-05-12T08:03:01.956Z,13.78
2023-05-12T08:04:05.456Z,13.78
2023-05-12T08:05:11.410Z,13.73
2023-05-12T08:06:15.233Z,13.71
2023-05-12T08:07:18.241Z,13.73
2023-05-12T08:08:21.161Z,13.73
2023-05-12T08:09:24.108Z,13.71
2023-05-12T08:10:31.016Z,13.68
2023-05-12T08:11:34.259Z,13.68
2023-05-12T08:12:37.289Z,13.68
2023-05-12T08:13:40.426Z,13.67
2023-05-12T08:14:43.227Z,13.67
2023-05-12T08:15:47.692Z,13.68
2023-05-12T08:16:50.524Z,13.73
2023-05-12T08:17:53.405Z,13.75
2023-05-12T08:18:56.391Z,13.75
2023-05-12T08:19:59.261Z,13.71
2023-05-12T08:21:02.122Z,13.74
2023-05-12T08:22:05.218Z,13.73
2023-05-12T08:23:08.205Z,13.75
2023-05-12T08:24:11.304Z,13.82
2023-05-12T08:25:14.247Z,13.85
2023-05-12T08:26:17.246Z,13.82
2023-05-12T08:27:20.819Z,13.85
2023-05-12T08:28:23.709Z,13.85
2023-05-12T08:29:26.534Z,13.88
2023-05-12T08:30:29.362Z,13.88
2023-05-12T08:31:32.346Z,13.89
2023-05-12T08:32:35.321Z,13.91
2023-05-12T08:33:38.184Z,13.94
2023-05-12T08:34:41.106Z,13.91
2023-05-12T08:35:43.966Z,13.94
2023-05-12T08:36:46.899Z,13.91
2023-05-12T08:37:49.921Z,13.95
2023-05-12T08:38:52.761Z,13.98
2023-05-12T08:39:55.741Z,13.98
2023-05-12T08:41:08.315Z,14.04
2023-05-12T08:42:32.157Z,14.06
2023-05-12T08:43:47.013Z,14.00
2023-05-12T08:44:50.559Z,14.00
2023-05-12T08:45:59.544Z,13.98
2023-05-12T08:47:04.618Z,13.92
2023-05-12T08:48:11.067Z,13.95
2023-05-12T08:49:17.721Z,13.91
2023-05-12T08:50:23.524Z,13.92
2023-05-12T08:51:27.667Z,13.91
2023-05-12T08:52:33.463Z,13.94
2023-05-12T08:53:38.157Z,13.88
2023-05-12T08:54:52.400Z,13.91
2023-05-12T08:57:09.549Z,13.87
2023-05-12T08:57:28.124Z,13.85
2023-05-12T08:58:40.794Z,13.87
2023-05-12T08:59:45.928Z,13.82
2023-05-12T09:00:49.118Z,13.79
2023-05-12T09:01:52.340Z,13.78
2023-05-12T09:02:56.899Z,13.75
2023-05-12T09:03:59.981Z,13.77
2023-05-12T09:05:03.342Z,13.74
2023-05-12T09:06:07.737Z,13.74
2023-05-12T09:07:12.346Z,13.71
2023-05-12T09:08:15.407Z,13.68
2023-05-12T09:09:18.950Z,13.64
2023-05-12T09:10:34.408Z,13.66
2023-05-12T09:11:38.504Z,13.63
2023-05-12T09:12:41.548Z,13.63
2023-05-12T09:13:53.456Z,13.64
2023-05-12T09:15:06.178Z,13.64
2023-05-12T09:16:13.340Z,13.64
2023-05-12T09:17:16.268Z,13.66
2023-05-12T09:18:19.097Z,13.67
2023-05-12T09:19:22.733Z,13.71
2023-05-12T09:20:31.669Z,13.71
2023-05-12T09:21:35.617Z,13.71
2023-05-12T09:22:38.513Z,13.70
2023-05-12T09:23:41.459Z,13.67
2023-05-12T09:24:44.384Z,13.63
2023-05-12T09:25:50.860Z,13.63
2023-05-12T09:26:56.241Z,13.54
2023-05-12T09:27:59.132Z,13.48
2023-05-12T09:29:12.015Z,13.47
2023-05-12T09:30:17.286Z,13.54
2023-05-12T09:31:25.047Z,13.50
2023-05-12T09:32:35.403Z,13.50
2023-05-12T09:33:38.291Z,13.46
2023-05-12T09:34:42.219Z,13.48
2023-05-12T09:35:48.213Z,13.47
2023-05-12T09:37:02.309Z,13.51
2023-05-12T09:38:11.991Z,13.53
2023-05-12T09:39:14.916Z,13.50
2023-05-12T09:40:17.764Z,13.50
2023-05-12T09:41:24.739Z,13.47
2023-05-12T09:42:30.804Z,13.42
2023-05-12T09:43:33.860Z,13.37
2023-05-12T09:44:36.775Z,13.35
2023-05-12T09:45:45.194Z,13.35
2023-05-12T09:46:49.195Z,13.29
2023-05-12T09:47:52.167Z,13.27
2023-05-12T09:48:58.613Z,13.24
2023-05-12T09:50:04.638Z,13.24
2023-05-12T09:51:12.089Z,13.22
2023-05-12T09:52:14.954Z,13.23
2023-05-12T09:53:19.601Z,13.30
2023-05-12T09:54:29.993Z,13.30
2023-05-12T09:55:33.635Z,13.30
2023-05-12T09:56:39.140Z,13.32
2023-05-12T09:57:46.257Z,13.36
2023-05-12T09:58:50.964Z,13.32
2023-05-12T09:59:54.773Z,13.32
2023-05-12T10:01:18.297Z,13.33
2023-05-12T10:02:21.801Z,13.30
2023-05-12T10:03:26.954Z,13.30
2023-05-12T10:04:52.159Z,13.32
2023-05-12T10:06:02.068Z,13.30
2023-05-12T10:07:05.016Z,13.30
2023-05-12T10:08:09.578Z,13.32
2023-05-12T10:09:27.077Z,13.26
2023-05-12T10:10:30.303Z,13.23
2023-05-12T10:11:33.817Z,13.24
2023-05-12T10:12:37.409Z,13.24
2023-05-12T10:13:41.139Z,13.24
2023-05-12T10:14:44.836Z,13.24
2023-05-12T10:15:49.817Z,13.16
2023-05-12T10:16:53.450Z,13.15
2023-05-12T10:17:56.851Z,13.12
2023-05-12T10:19:00.254Z,13.12
2023-05-12T10:20:04.429Z,13.12
2023-05-12T10:21:09.450Z,13.13
2023-05-12T10:22:12.706Z,13.09
2023-05-12T10:23:17.309Z,13.10
2023-05-12T10:24:22.388Z,13.08
2023-05-12T10:25:25.553Z,13.09
2023-05-12T10:26:28.797Z,13.03
2023-05-12T10:27:34.707Z,13.05
2023-05-12T10:28:37.559Z,13.06
2023-05-12T10:29:40.949Z,13.05
2023-05-12T10:30:44.630Z,13.06
2023-05-12T10:31:48.581Z,13.05
2023-05-12T10:32:52.230Z,13.05
2023-05-12T10:33:59.923Z,13.08
2023-05-12T10:35:13.820Z,13.09
2023-05-12T10:36:20.919Z,13.10
2023-05-12T10:37:24.704Z,13.12
2023-05-12T10:38:28.031Z,13.10
2023-05-12T10:39:31.643Z,13.12
2023-05-12T10:40:34.857Z,13.15
2023-05-12T10:41:37.652Z,13.19
2023-05-12T10:42:42.773Z,13.16
2023-05-12T10:43:50.132Z,13.10
2023-05-12T10:44:54.852Z,13.10
2023-05-12T10:46:17.852Z,13.10
2023-05-12T10:47:27.898Z,13.19
2023-05-12T10:48:30.810Z,13.23
2023-05-12T10:49:36.470Z,13.20
2023-05-12T10:50:39.398Z,13.17
2023-05-12T10:51:45.156Z,13.16
2023-05-12T10:52:58.291Z,13.17
2023-05-12T10:54:05.958Z,13.17
2023-05-12T10:55:15.472Z,13.17
2023-05-12T10:56:27.370Z,13.22
2023-05-12T10:57:32.330Z,13.20
2023-05-12T10:58:36.030Z,13.20
2023-05-12T10:59:50.554Z,13.19
2023-05-12T11:00:55.900Z,13.22
2023-05-12T11:02:05.465Z,13.23
2023-05-12T11:03:15.951Z,13.20
2023-05-12T11:04:23.711Z,13.27
2023-05-12T11:05:35.728Z,13.26
2023-05-12T11:06:40.832Z,13.26
2023-05-12T11:07:50.733Z,13.27
2023-05-12T11:08:55.052Z,13.27
2023-05-12T11:10:05.166Z,13.29
2023-05-12T11:11:09.077Z,13.26
2023-05-12T11:12:13.290Z,13.30
2023-05-12T11:13:16.344Z,13.30
2023-05-12T11:14:19.283Z,13.32
2023-05-12T11:15:23.104Z,13.35
2023-05-12T11:16:26.425Z,13.35
2023-05-12T11:17:29.680Z,13.33
2023-05-12T11:18:32.860Z,13.39
2023-05-12T11:19:35.817Z,13.40
2023-05-12T11:20:38.646Z,13.40
2023-05-12T11:21:42.031Z,13.37
2023-05-12T11:22:44.851Z,13.35
2023-05-12T11:23:52.748Z,13.36
2023-05-12T11:24:55.639Z,13.42
2023-05-12T11:25:58.667Z,13.40
2023-05-12T11:27:01.574Z,13.44
2023-05-12T11:28:04.737Z,13.40
2023-05-12T11:29:07.774Z,13.46
2023-05-12T11:30:12.302Z,13.43
2023-05-12T11:31:25.482Z,13.43
2023-05-12T11:32:28.782Z,13.42
2023-05-12T11:33:31.605Z,13.42
2023-05-12T11:34:34.754Z,13.39
2023-05-12T11:35:37.614Z,13.42
2023-05-12T11:36:45.090Z,13.43
2023-05-12T11:37:48.251Z,13.43
2023-05-12T11:38:52.800Z,13.44
2023-05-12T11:39:55.597Z,13.47
2023-05-12T11:40:58.515Z,13.53
2023-05-12T11:42:12.976Z,13.51
2023-05-12T11:43:22.298Z,13.57
2023-05-12T11:44:26.361Z,13.57
2023-05-12T11:45:31.191Z,13.60
2023-05-12T11:46:34.094Z,13.58
2023-05-12T11:47:37.276Z,13.53
2023-05-12T11:48:40.173Z,13.54
2023-05-12T11:49:50.862Z,13.56
2023-05-12T11:50:53.661Z,13.54
2023-05-12T11:51:58.952Z,13.51
2023-05-12T11:53:01.865Z,13.48
2023-05-12T11:54:08.084Z,13.47
2023-05-12T11:55:11.534Z,13.46
2023-05-12T11:56:25.800Z,13.43
2023-05-12T11:57:37.344Z,13.44
2023-05-12T11:58:40.484Z,13.46
2023-05-12T11:59:43.284Z,13.40
2023-05-12T12:00:46.091Z,13.40
2023-05-12T12:01:49.027Z,13.43
2023-05-12T12:02:51.910Z,13.47
2023-05-12T12:03:56.580Z,13.46
2023-05-12T12:05:19.405Z,13.48
2023-05-12T12:06:23.899Z,13.51
2023-05-12T12:07:44.725Z,13.54
2023-05-12T12:08:58.053Z,13.56
2023-05-12T12:10:13.057Z,13.57
2023-05-12T12:11:15.931Z,13.54
2023-05-12T12:12:18.759Z,13.53
2023-05-12T12:13:26.571Z,13.50
2023-05-12T12:14:29.813Z,13.47
2023-05-12T12:15:32.939Z,13.48
2023-05-12T12:16:38.271Z,13.48
2023-05-12T12:17:41.460Z,13.46
2023-05-12T12:18:44.453Z,13.42
2023-05-12T12:19:49.011Z,13.43
2023-05-12T12:20:51.854Z,13.43
2023-05-12T12:21:55.519Z,13.37
2023-05-12T12:22:58.364Z,13.42
2023-05-12T12:24:01.209Z,13.39
2023-05-12T12:25:06.079Z,13.39
2023-05-12T12:26:09.278Z,13.39
2023-05-12T12:27:12.128Z,13.36
2023-05-12T12:28:14.938Z,13.32
2023-05-12T12:29:18.556Z,13.32
2023-05-12T12:30:21.517Z,13.32
2023-05-12T12:31:24.425Z,13.29
2023-05-12T12:32:27.428Z,13.24
2023-05-12T12:33:33.053Z,13.20
2023-05-12T12:34:35.941Z,13.17
2023-05-12T12:35:38.747Z,13.16
2023-05-12T12:36:42.395Z,13.19
2023-05-12T12:37:52.437Z,13.19
2023-05-12T12:38:55.348Z,13.17
2023-05-12T12:39:58.183Z,13.19
2023-05-12T12:41:01.631Z,13.20
2023-05-12T12:42:04.604Z,13.22
2023-05-12T12:43:07.580Z,13.24
2023-05-12T12:44:10.936Z,13.23
2023-05-12T12:45:14.913Z,13.17
2023-05-12T12:46:17.785Z,13.17
2023-05-12T12:47:20.798Z,13.19
2023-05-12T12:48:23.641Z,13.22
2023-05-12T12:49:26.488Z,13.20
2023-05-12T12:50:29.391Z,13.22
2023-05-12T12:51:44.462Z,13.16
2023-05-12T12:52:50.231Z,13.15
2023-05-12T12:53:53.125Z,13.13
2023-05-12T12:54:55.953Z,13.12
2023-05-12T12:55:58.817Z,13.09
2023-05-12T12:57:01.730Z,13.10
2023-05-12T12:58:04.599Z,13.09
2023-05-12T12:59:07.898Z,13.08
2023-05-12T13:00:11.247Z,13.08
2023-05-12T13:01:15.893Z,13.06
2023-05-12T13:02:18.866Z,13.06
2023-05-12T13:03:22.267Z,13.08
2023-05-12T13:04:25.137Z,13.05
2023-05-12T13:05:27.938Z,13.10
2023-05-12T13:06:30.786Z,13.08
2023-05-12T13:07:34.139Z,13.12
2023-05-12T13:08:37.068Z,13.12
2023-05-12T13:09:40.094Z,13.17
2023-05-12T13:10:43.346Z,13.12
2023-05-12T13:11:46.249Z,13.17
2023-05-12T13:12:49.069Z,13.19
2023-05-12T13:13:51.929Z,13.17
2023-05-12T13:14:55.000Z,13.17
2023-05-12T13:15:57.812Z,13.19
2023-05-12T13:17:00.727Z,13.20
2023-05-12T13:18:03.579Z,13.19
2023-05-12T13:19:06.628Z,13.20
2023-05-12T13:20:10.344Z,13.23
2023-05-12T13:21:13.446Z,13.22
2023-05-12T13:22:16.331Z,13.17
2023-05-12T13:23:19.217Z,13.19
2023-05-12T13:24:22.092Z,13.16
2023-05-12T13:25:24.936Z,13.20
2023-05-12T13:26:28.156Z,13.24
2023-05-12T13:27:30.983Z,13.26
2023-05-12T13:28:33.853Z,13.27
2023-05-12T13:29:37.624Z,13.26
2023-05-12T13:30:40.473Z,13.27
2023-05-12T13:31:44.262Z,13.27
2023-05-12T13:32:48.158Z,13.32
2023-05-12T13:33:51.117Z,13.27
2023-05-12T13:34:53.964Z,13.30
2023-05-12T13:35:56.924Z,13.29
2023-05-12T13:37:00.349Z,13.29
2023-05-12T13:38:03.236Z,13.23
2023-05-12T13:39:06.183Z,13.20
2023-05-12T13:40:09.613Z,13.22
2023-05-12T13:41:12.552Z,13.22
2023-05-12T13:42:15.614Z,13.22
2023-05-12T13:43:19.195Z,13.23
2023-05-12T13:44:22.039Z,13.24
2023-05-12T13:45:24.994Z,13.24
2023-05-12T13:46:28.141Z,13.17